F/V Iroise — FGRR — position and weather

sailwx.info

Track history (hours):
 
Tides and Currents Weather Stations Pressure Air Temp Water Temp Dewpoint Dewpoint Depression Visibility Wind Speed Wind Dir Waves Ship Positions

F/V Iroise

Last reported at 2017-Sep-19 22:23 UTC. Time now 2017-Sep-19 22:38 UTC.
Position N 48°06' W 004°20'.

Length 33 m; draft 4.5 m.

Type: Fishing. MMSI: 227347000.

Date/timePositionNaut miles runAvg speedWind from/ knotsBaromVisibWave heightAir tempDewpointWater temp
2017-Sep-19 22:23N 48°06' W 004°20'0 0.0
2017-Sep-19 22:00N 48°06' W 004°20'0 0.0
2017-Sep-19 21:22N 48°06' W 004°20'0 0.0
2017-Sep-19 21:00N 48°06' W 004°20'0 0.0
2017-Sep-19 18:58N 48°06' W 004°20'0 0.0
2017-Sep-19 18:31N 48°06' W 004°20'0 0.0
2017-Sep-19 17:55N 48°06' W 004°20'0 0.0
2017-Sep-19 17:30N 48°06' W 004°20'0 0.0
2017-Sep-19 16:57N 48°06' W 004°20'0 0.0
2017-Sep-19 15:58N 48°06' W 004°20'0 0.0
2017-Sep-19 15:28N 48°06' W 004°20'0 0.0
2017-Sep-19 04:53N 48°06' W 004°20'0 0.0
2017-Sep-19 04:30N 48°06' W 004°20'0 0.0
2017-Sep-19 04:00N 48°06' W 004°20'0 0.0
2017-Sep-19 03:30N 48°06' W 004°20'0 0.0
2017-Sep-19 03:00N 48°06' W 004°20'0 0.0
2017-Sep-19 02:30N 48°06' W 004°20'0 0.0
2017-Sep-19 01:55N 48°06' W 004°20'0 0.0
2017-Sep-19 01:24N 48°06' W 004°20'0 0.0
2017-Sep-18 16:40N 48°06' W 004°20'0 0.0
2017-Sep-18 16:22N 48°06' W 004°20'0 0.0
2017-Sep-18 16:00N 48°06' W 004°20'0 0.0
2017-Sep-18 15:28N 48°06' W 004°20'0 0.0
2017-Sep-18 15:00N 48°06' W 004°20'0 0.1
2017-Sep-18 14:30N 48°06' W 004°20'4 8.3
2017-Sep-18 14:01N 48°08' W 004°25'611.6
2017-Sep-18 13:30N 48°08' W 004°34'611.3
2017-Sep-18 13:00N 48°10' W 004°41'611.4
2017-Sep-18 12:31N 48°13' W 004°49'510.5
2017-Sep-18 12:00N 48°16' W 004°55'  
2017-Sep-10 15:10N 48°11' W 004°53'1 8.9
2017-Sep-10 15:00N 48°11' W 004°51'9 8.6
2017-Sep-10 14:01N 48°08' W 004°39'4 8.2
2017-Sep-10 13:29N 48°07' W 004°33'4 7.8
2017-Sep-10 13:00N 48°08' W 004°27'3 6.4
2017-Sep-10 12:30N 48°08' W 004°23'3 5.0
2017-Sep-10 11:57N 48°06' W 004°20'0 0.0
2017-Sep-10 11:27N 48°06' W 004°20'0 0.0
2017-Sep-10 09:58N 48°06' W 004°20'0 0.0
2017-Sep-10 09:28N 48°06' W 004°20'0 0.0
2017-Sep-10 09:00N 48°06' W 004°20'0 0.0
2017-Sep-10 08:30N 48°06' W 004°20'0 0.0
2017-Sep-10 08:00N 48°06' W 004°20'0 0.0
2017-Sep-10 07:30N 48°06' W 004°20'0 0.0
2017-Sep-10 07:00N 48°06' W 004°20'0 0.0
2017-Sep-10 06:30N 48°06' W 004°20'0 0.0
2017-Sep-10 06:01N 48°06' W 004°20'0 0.0
2017-Sep-10 05:28N 48°06' W 004°20'0 0.0
2017-Sep-10 05:00N 48°06' W 004°20'0 0.0
2017-Sep-10 04:29N 48°06' W 004°20'0 0.0
2017-Sep-10 04:00N 48°06' W 004°20'1 2.6
2017-Sep-10 03:28N 48°07' W 004°20'3 6.3
2017-Sep-10 03:00N 48°08' W 004°24'3 6.6
2017-Sep-10 02:31N 48°08' W 004°29'3 6.7
2017-Sep-10 02:01N 48°07' W 004°34'3 6.4
2017-Sep-10 01:30N 48°08' W 004°39'3 6.2
2017-Sep-10 01:00N 48°09' W 004°43'3 6.1
2017-Sep-10 00:30N 48°10' W 004°47'3 6.0
2017-Sep-10 00:00N 48°11' W 004°51'3 6.1
2017-Sep-09 23:30N 48°12' W 004°56'3 6.3
2017-Sep-09 23:00N 48°13' W 005°00'3 6.7
2017-Sep-09 22:30N 48°14' W 005°05'  
Track history (hours):
 
Tides and Currents Weather Stations Pressure Air Temp Water Temp Dewpoint Dewpoint Depression Visibility Wind Speed Wind Dir Waves Ship Positions

F/V Iroise

Last reported at 2017-Sep-19 22:23 UTC. Time now 2017-Sep-19 22:38 UTC.
Position N 48°06' W 004°20'.

Length 33 m; draft 4.5 m.

Type: Fishing. MMSI: 227347000.

Date/timePositionNaut miles runAvg speedWind from/ knotsBaromVisibWave heightAir tempDewpointWater temp
2017-Sep-19 22:23N 48°06' W 004°20'0 0.0
2017-Sep-19 22:00N 48°06' W 004°20'0 0.0
2017-Sep-19 21:22N 48°06' W 004°20'0 0.0
2017-Sep-19 21:00N 48°06' W 004°20'0 0.0
2017-Sep-19 18:58N 48°06' W 004°20'0 0.0
2017-Sep-19 18:31N 48°06' W 004°20'0 0.0
2017-Sep-19 17:55N 48°06' W 004°20'0 0.0
2017-Sep-19 17:30N 48°06' W 004°20'0 0.0
2017-Sep-19 16:57N 48°06' W 004°20'0 0.0
2017-Sep-19 15:58N 48°06' W 004°20'0 0.0
2017-Sep-19 15:28N 48°06' W 004°20'0 0.0
2017-Sep-19 04:53N 48°06' W 004°20'0 0.0
2017-Sep-19 04:30N 48°06' W 004°20'0 0.0
2017-Sep-19 04:00N 48°06' W 004°20'0 0.0
2017-Sep-19 03:30N 48°06' W 004°20'0 0.0
2017-Sep-19 03:00N 48°06' W 004°20'0 0.0
2017-Sep-19 02:30N 48°06' W 004°20'0 0.0
2017-Sep-19 01:55N 48°06' W 004°20'0 0.0
2017-Sep-19 01:24N 48°06' W 004°20'0 0.0
2017-Sep-18 16:40N 48°06' W 004°20'0 0.0
2017-Sep-18 16:22N 48°06' W 004°20'0 0.0
2017-Sep-18 16:00N 48°06' W 004°20'0 0.0
2017-Sep-18 15:28N 48°06' W 004°20'0 0.0
2017-Sep-18 15:00N 48°06' W 004°20'0 0.1
2017-Sep-18 14:30N 48°06' W 004°20'4 8.3
2017-Sep-18 14:01N 48°08' W 004°25'611.6
2017-Sep-18 13:30N 48°08' W 004°34'611.3
2017-Sep-18 13:00N 48°10' W 004°41'611.4
2017-Sep-18 12:31N 48°13' W 004°49'510.5
2017-Sep-18 12:00N 48°16' W 004°55'  
2017-Sep-10 15:10N 48°11' W 004°53'1 8.9
2017-Sep-10 15:00N 48°11' W 004°51'9 8.6
2017-Sep-10 14:01N 48°08' W 004°39'4 8.2
2017-Sep-10 13:29N 48°07' W 004°33'4 7.8
2017-Sep-10 13:00N 48°08' W 004°27'3 6.4
2017-Sep-10 12:30N 48°08' W 004°23'3 5.0
2017-Sep-10 11:57N 48°06' W 004°20'0 0.0
2017-Sep-10 11:27N 48°06' W 004°20'0 0.0
2017-Sep-10 09:58N 48°06' W 004°20'0 0.0
2017-Sep-10 09:28N 48°06' W 004°20'0 0.0
2017-Sep-10 09:00N 48°06' W 004°20'0 0.0
2017-Sep-10 08:30N 48°06' W 004°20'0 0.0
2017-Sep-10 08:00N 48°06' W 004°20'0 0.0
2017-Sep-10 07:30N 48°06' W 004°20'0 0.0
2017-Sep-10 07:00N 48°06' W 004°20'0 0.0
2017-Sep-10 06:30N 48°06' W 004°20'0 0.0
2017-Sep-10 06:01N 48°06' W 004°20'0 0.0
2017-Sep-10 05:28N 48°06' W 004°20'0 0.0
2017-Sep-10 05:00N 48°06' W 004°20'0 0.0
2017-Sep-10 04:29N 48°06' W 004°20'0 0.0
2017-Sep-10 04:00N 48°06' W 004°20'1 2.6
2017-Sep-10 03:28N 48°07' W 004°20'3 6.3
2017-Sep-10 03:00N 48°08' W 004°24'3 6.6
2017-Sep-10 02:31N 48°08' W 004°29'3 6.7
2017-Sep-10 02:01N 48°07' W 004°34'3 6.4
2017-Sep-10 01:30N 48°08' W 004°39'3 6.2
2017-Sep-10 01:00N 48°09' W 004°43'3 6.1
2017-Sep-10 00:30N 48°10' W 004°47'3 6.0
2017-Sep-10 00:00N 48°11' W 004°51'3 6.1
2017-Sep-09 23:30N 48°12' W 004°56'3 6.3
2017-Sep-09 23:00N 48°13' W 005°00'3 6.7
2017-Sep-09 22:30N 48°14' W 005°05'  

Dump ship's entire track history